Rechercher aéroport 
image banner adimage banner ad
image banner ad

SVFZ - El Lucero De Zulia

Situé à Zulia, Venezuela

ICAO - , IATA -

Données fournies par Airmate  

Information générale

Coordonnées: N10°27'0" W71°21'60"
Élévation : feet MSL.
 
Voir autres Aéroports à Zulia

Données opérationnelles

Accessible au public
Heure actuelle UTC:
Heure actuelle locale:
Météo à : SVMC - Maracaibo / La Chinita Intl ( 41 km )
METAR: SVMC 201502Z AUTO 22006KT NCD 23/22 Q1012
TAF: TAF SVMC 201000Z 2012/2112 00000KT 9999 BKN013 TX35/2019Z TN24/2008Z TEMPO 2012/2014 16005KT 9000 DZ BKN013 FM201500 08006KT 9999 SCT013
Voir NOTAMs / SUP AIP / TFR affectant cet aéroport [VIEW]
Fréquences de communication: [VIEW]

Pistes:

Identifiant RWYQFULongueur (ft)Largeur (ft)SurfaceLDA (ft)
0500
2300

Coordonnées de l'aéroport

Adresse: Zulia Venezuela

Vue satellite de SVFZ